Time;durP1;ratioP1;P1;durP2;ratioP2;P2;SDS_P1;SDS_P2;PMS_P1;PMS_P2;Temp;Humidity;BMP_temperature;BMP_pressure;BME280_temperature;BME280_humidity;BME280_pressure;Samples;Min_cycle;Max_cycle;Signal;HPM_P1;HPM_P2
2021/04/16 00:01:26;;;;;;;5.33;3.70;;;3.20;99.90;;;;;;5095653;28;20168;-68
2021/04/16 00:03:51;;;;;;;5.30;3.30;;;3.20;99.90;;;;;;5095639;28;20299;-69
2021/04/16 00:06:17;;;;;;;5.20;3.37;;;3.20;99.90;;;;;;5095593;28;20182;-69
2021/04/16 00:08:43;;;;;;;6.43;3.77;;;3.20;99.90;;;;;;5095677;28;20667;-69
2021/04/16 00:11:15;;;;;;;4.63;3.67;;;3.30;99.90;;;;;;5095389;28;20187;-69
2021/04/16 00:13:41;;;;;;;4.35;3.17;;;3.30;99.90;;;;;;5095945;28;20184;-68
2021/04/16 00:16:10;;;;;;;7.43;4.17;;;3.40;99.90;;;;;;5095420;28;20159;-68
2021/04/16 00:18:36;;;;;;;4.22;3.40;;;3.50;99.90;;;;;;5095590;28;20415;-69
2021/04/16 00:21:02;;;;;;;10.30;3.60;;;3.50;99.90;;;;;;5095273;28;20176;-68
2021/04/16 00:23:28;;;;;;;5.73;3.80;;;3.50;99.90;;;;;;5095130;28;20187;-69
2021/04/16 00:25:54;;;;;;;5.03;3.83;;;3.60;99.90;;;;;;5095188;28;20217;-69
2021/04/16 00:28:20;;;;;;;4.97;3.90;;;3.50;99.90;;;;;;5095272;28;20167;-68
2021/04/16 00:30:59;;;;;;;4.50;3.50;;;3.50;99.90;;;;;;5095320;28;20412;-69
2021/04/16 00:33:25;;;;;;;11.25;4.35;;;3.60;99.90;;;;;;5095267;28;20240;-69
2021/04/16 00:35:51;;;;;;;6.85;3.53;;;3.60;99.90;;;;;;5094727;28;20171;-69
2021/04/16 00:38:18;;;;;;;6.20;3.25;;;3.60;99.90;;;;;;5094537;28;20168;-68
2021/04/16 00:40:50;;;;;;;6.85;4.20;;;3.70;99.90;;;;;;5094772;28;20182;-69
2021/04/16 00:43:18;;;;;;;7.78;4.13;;;3.70;99.90;;;;;;5094921;28;20179;-68
2021/04/16 00:45:44;;;;;;;5.53;3.60;;;3.70;99.90;;;;;;5094785;28;20186;-68
2021/04/16 00:48:41;;;;;;;5.05;3.40;;;3.60;99.90;;;;;;5094801;28;20175;-69
2021/04/16 00:51:12;;;;;;;5.50;3.40;;;3.80;99.90;;;;;;5078084;28;20210;-69
2021/04/16 00:53:38;;;;;;;7.68;4.75;;;3.90;99.90;;;;;;5094641;28;20191;-69
2021/04/16 00:56:04;;;;;;;5.40;4.00;;;3.70;99.90;;;;;;5094682;28;20174;-69
2021/04/16 00:58:31;;;;;;;6.00;3.40;;;3.70;99.90;;;;;;5094690;28;20582;-68
2021/04/16 01:00:58;;;;;;;6.85;4.38;;;3.70;99.90;;;;;;5094764;28;20171;-69
2021/04/16 01:03:24;;;;;;;7.32;3.70;;;3.60;99.90;;;;;;5094355;28;20349;-68
2021/04/16 01:05:57;;;;;;;5.53;3.30;;;3.80;99.90;;;;;;5094383;28;20200;-69
2021/04/16 01:08:23;;;;;;;7.13;3.63;;;3.80;99.90;;;;;;5094220;28;20540;-69
2021/04/16 01:10:52;;;;;;;5.23;4.60;;;3.60;99.90;;;;;;5094271;28;20202;-68
2021/04/16 01:13:20;;;;;;;4.65;3.63;;;3.50;99.90;;;;;;5094145;28;20175;-69
2021/04/16 01:15:52;;;;;;;4.53;3.58;;;3.60;99.90;;;;;;5094162;28;20171;-69
2021/04/16 01:18:21;;;;;;;6.15;3.80;;;3.50;99.90;;;;;;5094499;28;20175;-68
2021/04/16 01:20:49;;;;;;;6.78;4.53;;;3.50;99.90;;;;;;5094002;28;20174;-69
2021/04/16 01:23:28;;;;;;;3.58;3.28;;;3.60;99.90;;;;;;5093953;28;20259;-69
2021/04/16 01:25:58;;;;;;;5.03;3.85;;;3.70;99.90;;;;;;5093925;28;20176;-69
2021/04/16 01:28:24;;;;;;;5.15;4.00;;;3.70;99.90;;;;;;5093867;28;20171;-69
2021/04/16 01:31:09;;;;;;;6.10;3.80;;;3.70;99.90;;;;;;5093821;28;20195;-69
2021/04/16 01:33:37;;;;;;;7.95;3.75;;;3.90;99.90;;;;;;5094062;28;20187;-69
2021/04/16 01:36:05;;;;;;;6.35;3.90;;;4.00;99.90;;;;;;5093715;28;20172;-69
2021/04/16 01:38:33;;;;;;;5.82;4.22;;;4.30;99.90;;;;;;5093736;28;20179;-69
2021/04/16 01:40:59;;;;;;;4.65;3.40;;;4.20;99.90;;;;;;5094019;28;20202;-68
2021/04/16 01:43:36;;;;;;;3.80;3.17;;;4.10;99.90;;;;;;5093656;28;20191;-68
2021/04/16 01:46:06;;;;;;;5.50;3.88;;;4.20;99.90;;;;;;5093765;28;20482;-69
2021/04/16 01:49:04;;;;;;;6.47;3.75;;;4.20;99.90;;;;;;5093759;28;20582;-69
2021/04/16 01:51:33;;;;;;;5.82;4.25;;;4.40;99.90;;;;;;5049061;28;20265;-68
2021/04/16 01:54:11;;;;;;;5.00;3.72;;;4.40;99.90;;;;;;5093564;28;20687;-69
2021/04/16 01:56:40;;;;;;;3.75;2.95;;;4.40;99.90;;;;;;5093643;28;20182;-69
2021/04/16 01:59:12;;;;;;;5.32;3.70;;;4.40;99.90;;;;;;5093474;28;20182;-69
2021/04/16 02:01:38;;;;;;;4.78;3.33;;;4.50;99.90;;;;;;5093420;28;20240;-69
2021/04/16 02:04:04;;;;;;;6.20;4.20;;;4.60;99.90;;;;;;5093499;28;20707;-69
2021/04/16 02:06:34;;;;;;;5.83;3.73;;;4.60;99.90;;;;;;5093221;28;20406;-69
2021/04/16 02:08:59;;;;;;;5.70;3.90;;;4.70;99.90;;;;;;5093621;28;20525;-68
2021/04/16 02:11:25;;;;;;;6.37;4.00;;;4.60;99.90;;;;;;5093460;28;20192;-69
2021/04/16 02:13:50;;;;;;;5.97;3.93;;;4.80;99.90;;;;;;5093113;28;20548;-69
2021/04/16 02:16:16;;;;;;;10.90;3.83;;;4.70;99.90;;;;;;5093504;28;20195;-69
2021/04/16 02:18:41;;;;;;;6.60;4.50;;;4.90;99.90;;;;;;5093451;28;20632;-69
2021/04/16 02:21:07;;;;;;;8.03;4.03;;;4.80;99.90;;;;;;5093010;28;20171;-69
2021/04/16 02:23:32;;;;;;;7.23;4.20;;;5.10;99.90;;;;;;5093229;28;20187;-69
2021/04/16 02:25:58;;;;;;;8.63;5.43;;;5.00;99.90;;;;;;5093090;28;20170;-69
2021/04/16 02:28:23;;;;;;;7.77;4.50;;;5.00;99.90;;;;;;5093303;28;20182;-69
2021/04/16 02:30:49;;;;;;;7.27;4.37;;;5.10;99.90;;;;;;5092996;28;20191;-69
2021/04/16 02:33:14;;;;;;;7.47;3.83;;;5.20;99.90;;;;;;5092894;28;20714;-69
2021/04/16 02:35:40;;;;;;;6.50;4.43;;;5.20;99.90;;;;;;5093008;28;20175;-69
2021/04/16 02:38:06;;;;;;;9.60;4.50;;;5.20;99.90;;;;;;5092970;28;20199;-69
2021/04/16 02:40:31;;;;;;;6.03;5.10;;;5.20;99.90;;;;;;5093170;28;20179;-69
2021/04/16 02:42:57;;;;;;;7.80;4.47;;;5.30;99.90;;;;;;5093052;28;20191;-69
2021/04/16 02:45:26;;;;;;;8.00;4.90;;;5.20;99.90;;;;;;5093148;28;20174;-68
2021/04/16 02:47:52;;;;;;;7.35;4.60;;;5.10;99.90;;;;;;5092866;28;20308;-69
2021/04/16 02:50:23;;;;;;;5.97;4.53;;;5.10;99.90;;;;;;5093039;28;20202;-69
2021/04/16 02:52:49;;;;;;;6.00;4.10;;;5.30;99.90;;;;;;5092637;28;20695;-69
2021/04/16 02:55:15;;;;;;;8.33;5.00;;;5.20;99.90;;;;;;5092999;28;20172;-68
2021/04/16 02:57:41;;;;;;;6.20;4.50;;;5.20;99.90;;;;;;5092709;28;20537;-69
2021/04/16 03:00:16;;;;;;;8.07;4.60;;;5.40;99.90;;;;;;5094543;28;20172;-69
2021/04/16 03:02:41;;;;;;;8.93;4.30;;;5.70;99.90;;;;;;5096719;28;20356;-69
2021/04/16 03:05:07;;;;;;;7.13;4.20;;;5.70;99.90;;;;;;5096973;28;20175;-69
2021/04/16 03:07:33;;;;;;;8.00;4.75;;;5.70;99.90;;;;;;5096879;28;20663;-69
2021/04/16 03:09:58;;;;;;;10.63;5.80;;;5.60;99.90;;;;;;5096700;28;20198;-69
2021/04/16 03:12:24;;;;;;;8.73;6.10;;;5.70;99.90;;;;;;5096637;28;20222;-69
2021/04/16 03:14:49;;;;;;;6.70;4.70;;;5.80;99.90;;;;;;5096515;28;20731;-69
2021/04/16 03:17:15;;;;;;;8.43;4.67;;;5.80;99.90;;;;;;5096744;28;20202;-69
2021/04/16 03:19:40;;;;;;;8.83;4.30;;;5.80;99.90;;;;;;5096567;28;20171;-69
2021/04/16 03:22:06;;;;;;;6.93;4.97;;;5.80;99.90;;;;;;5096458;28;20172;-69
2021/04/16 03:24:32;;;;;;;6.87;4.47;;;5.70;99.90;;;;;;5096316;28;20191;-67
2021/04/16 03:26:57;;;;;;;10.80;5.20;;;5.90;99.90;;;;;;5096583;28;20171;-69
2021/04/16 03:29:23;;;;;;;7.47;5.13;;;5.90;99.90;;;;;;5096586;28;20197;-69
2021/04/16 03:31:48;;;;;;;6.13;3.90;;;5.80;99.90;;;;;;5096241;28;20234;-68
2021/04/16 03:34:14;;;;;;;6.63;4.43;;;6.00;99.90;;;;;;5096225;28;20686;-69
2021/04/16 03:36:39;;;;;;;5.90;3.73;;;5.80;99.90;;;;;;5096511;28;20683;-69
2021/04/16 03:39:05;;;;;;;5.10;4.13;;;5.60;99.90;;;;;;5096404;28;20536;-69
2021/04/16 03:41:31;;;;;;;7.67;4.60;;;5.70;99.90;;;;;;5096110;28;20176;-69
2021/04/16 03:43:56;;;;;;;6.70;4.40;;;5.90;99.90;;;;;;5096601;28;20215;-69
2021/04/16 03:46:22;;;;;;;9.50;4.80;;;5.90;99.90;;;;;;5095981;28;20171;-69
2021/04/16 03:48:48;;;;;;;5.97;3.80;;;5.90;99.90;;;;;;5095914;28;20224;-69
2021/04/16 03:51:14;;;;;;;4.43;4.03;;;5.80;99.90;;;;;;5096082;28;20656;-69
2021/04/16 03:53:42;;;;;;;5.93;4.07;;;5.80;99.90;;;;;;5095844;28;20236;-69
2021/04/16 03:56:09;;;;;;;8.15;4.60;;;5.60;99.90;;;;;;5095777;28;20160;-69
2021/04/16 03:58:39;;;;;;;4.10;3.40;;;5.50;99.90;;;;;;5096028;28;20289;-69
2021/04/16 04:01:06;;;;;;;5.75;4.60;;;5.30;99.90;;;;;;5096033;28;20171;-69
2021/04/16 04:03:32;;;;;;;8.88;4.57;;;5.20;99.90;;;;;;5095716;28;20219;-68
2021/04/16 04:05:58;;;;;;;6.50;3.80;;;5.20;99.90;;;;;;5095628;28;20244;-69
2021/04/16 04:08:24;;;;;;;4.55;3.40;;;5.10;99.90;;;;;;5095578;28;20195;-69
2021/04/16 04:10:50;;;;;;;4.80;3.75;;;5.30;99.90;;;;;;5094555;28;20222;-69
2021/04/16 04:13:16;;;;;;;10.70;4.00;;;5.30;99.90;;;;;;5095019;28;20672;-69
2021/04/16 04:15:42;;;;;;;14.07;4.40;;;5.20;99.90;;;;;;5095402;28;20175;-68
2021/04/16 04:18:08;;;;;;;7.60;4.00;;;5.00;99.90;;;;;;5095722;28;20237;-68
2021/04/16 04:20:35;;;;;;;5.20;4.07;;;5.00;99.90;;;;;;5095529;28;20219;-69
2021/04/16 04:23:02;;;;;;;7.65;4.20;;;5.40;99.90;;;;;;5095542;28;20195;-69
2021/04/16 04:25:30;;;;;;;6.07;4.13;;;5.50;99.90;;;;;;5095133;28;20673;-69
2021/04/16 04:27:59;;;;;;;4.60;3.78;;;5.50;99.90;;;;;;5095238;28;20168;-68
2021/04/16 04:30:29;;;;;;;5.82;4.13;;;5.10;99.90;;;;;;5095071;28;20222;-69
2021/04/16 04:32:55;;;;;;;6.28;4.65;;;5.30;99.90;;;;;;5095355;28;20187;-68
2021/04/16 04:35:22;;;;;;;6.57;4.82;;;5.10;99.90;;;;;;5095182;28;20298;-68
2021/04/16 04:37:47;;;;;;;7.13;4.90;;;4.90;99.90;;;;;;5095716;28;20171;-68
2021/04/16 04:40:14;;;;;;;5.40;4.23;;;4.80;1.00;;;;;;5095457;28;20703;-68
2021/04/16 04:42:40;;;;;;;6.55;4.13;;;4.70;99.90;;;;;;5095180;28;20445;-68
2021/04/16 04:45:07;;;;;;;7.23;4.67;;;4.70;1.00;;;;;;5094698;28;20171;-68
2021/04/16 04:47:33;;;;;;;14.93;4.90;;;4.80;1.00;;;;;;5094709;28;20171;-68
2021/04/16 04:49:58;;;;;;;7.70;5.20;;;4.80;1.00;;;;;;5094916;28;20167;-68
2021/04/16 04:52:25;;;;;;;7.30;4.97;;;4.80;1.00;;;;;;5094673;28;20383;-68
2021/04/16 04:54:53;;;;;;;7.03;4.55;;;4.70;1.00;;;;;;5094716;28;20199;-68
2021/04/16 04:57:21;;;;;;;6.10;4.78;;;4.90;1.00;;;;;;5094766;28;20260;-67
2021/04/16 04:59:47;;;;;;;9.27;5.65;;;4.80;1.00;;;;;;5094789;28;20168;-68
2021/04/16 05:02:15;;;;;;;8.90;5.47;;;4.90;1.00;;;;;;5094259;28;20717;-68
2021/04/16 05:04:41;;;;;;;166.88;152.40;;;4.80;1.00;;;;;;5093039;28;20425;-68
2021/04/16 05:07:06;;;;;;;12.93;5.37;;;4.70;1.00;;;;;;5094171;28;20184;-69
2021/04/16 05:09:32;;;;;;;10.57;6.20;;;4.70;1.00;;;;;;5094567;28;20171;-68
2021/04/16 05:11:58;;;;;;;8.23;5.57;;;4.60;1.00;;;;;;5092662;28;20707;-68
2021/04/16 05:14:23;;;;;;;8.60;4.67;;;4.70;1.00;;;;;;5094185;28;20198;-68
2021/04/16 05:16:49;;;;;;;8.63;4.80;;;4.60;1.00;;;;;;5094149;28;20251;-68
2021/04/16 05:19:15;;;;;;;9.70;5.50;;;4.70;1.00;;;;;;5094031;28;20167;-68
2021/04/16 05:21:41;;;;;;;8.15;5.38;;;4.80;1.00;;;;;;5094482;28;20176;-68
2021/04/16 05:24:07;;;;;;;8.63;5.70;;;4.90;1.00;;;;;;5093224;28;20317;-68
2021/04/16 05:26:34;;;;;;;7.50;5.05;;;4.80;1.00;;;;;;5094241;28;20277;-69
2021/04/16 05:29:00;;;;;;;8.05;5.75;;;4.90;1.00;;;;;;5094721;28;20655;-69
2021/04/16 05:31:26;;;;;;;9.43;5.33;;;4.90;1.00;;;;;;5093610;28;20261;-69
2021/04/16 05:33:52;;;;;;;15.82;6.22;;;5.00;1.00;;;;;;5093493;28;20219;-69
2021/04/16 05:36:18;;;;;;;11.47;7.87;;;4.90;1.00;;;;;;5093945;28;20192;-69
2021/04/16 05:38:43;;;;;;;10.47;6.20;;;5.00;1.00;;;;;;5093993;28;20857;-69
2021/04/16 05:41:09;;;;;;;15.70;6.00;;;5.20;1.00;;;;;;5093448;28;20633;-69
2021/04/16 05:43:34;;;;;;;9.07;5.87;;;5.10;1.00;;;;;;5093377;28;20187;-69
2021/04/16 05:46:00;;;;;;;8.20;4.77;;;5.20;99.90;;;;;;5093246;28;20186;-69
2021/04/16 05:48:26;;;;;;;7.93;4.70;;;5.20;99.90;;;;;;5093578;28;20269;-68
2021/04/16 05:50:52;;;;;;;7.05;4.47;;;5.30;99.90;;;;;;5092299;28;20245;-69
2021/04/16 05:53:17;;;;;;;6.20;4.53;;;5.30;99.90;;;;;;5093570;28;20187;-69
2021/04/16 05:55:43;;;;;;;7.37;4.80;;;5.50;99.90;;;;;;5093044;28;20245;-69
2021/04/16 05:58:09;;;;;;;10.83;5.03;;;5.70;99.90;;;;;;5092918;28;20686;-68
2021/04/16 06:00:35;;;;;;;9.97;5.43;;;5.70;99.90;;;;;;5093033;28;20253;-68
2021/04/16 06:03:00;;;;;;;9.85;5.47;;;5.90;99.90;;;;;;5093488;28;20900;-68
2021/04/16 06:05:26;;;;;;;10.33;5.20;;;5.90;99.90;;;;;;5093150;28;20171;-67
2021/04/16 06:07:54;;;;;;;10.50;4.60;;;5.80;99.90;;;;;;5093115;28;20233;-68
2021/04/16 06:10:20;;;;;;;10.43;5.32;;;5.90;99.90;;;;;;5093728;28;20282;-68
2021/04/16 06:12:47;;;;;;;5.70;4.05;;;5.80;99.90;;;;;;5093270;28;20220;-68
2021/04/16 06:15:16;;;;;;;7.13;4.80;;;5.80;99.90;;;;;;5093406;28;20170;-68
2021/04/16 06:17:43;;;;;;;9.05;4.10;;;6.00;99.90;;;;;;5092667;28;20175;-68
2021/04/16 06:20:11;;;;;;;8.35;4.30;;;6.00;99.90;;;;;;5092918;28;20171;-69
2021/04/16 06:22:36;;;;;;;9.40;5.80;;;5.90;99.90;;;;;;5092829;28;20183;-68
2021/04/16 06:25:07;;;;;;;12.90;4.80;;;5.80;99.90;;;;;;5092994;28;20266;-69
2021/04/16 06:27:33;;;;;;;7.53;4.55;;;6.10;99.90;;;;;;5092965;28;20173;-69
2021/04/16 06:29:58;;;;;;;8.60;4.47;;;6.00;99.90;;;;;;5092999;28;20190;-68
2021/04/16 06:32:24;;;;;;;10.27;3.77;;;6.20;99.90;;;;;;5092811;28;20397;-69
2021/04/16 06:34:49;;;;;;;7.93;3.93;;;6.50;99.90;;;;;;5091940;28;20213;-68
2021/04/16 06:37:15;;;;;;;5.90;3.87;;;6.40;99.90;;;;;;5092859;28;20379;-69
2021/04/16 06:39:41;;;;;;;19.10;5.80;;;6.60;99.90;;;;;;5092773;28;20167;-69
2021/04/16 06:42:16;;;;;;;6.15;4.18;;;6.30;99.90;;;;;;5092985;28;20171;-68
2021/04/16 06:44:45;;;;;;;9.27;4.50;;;6.60;99.90;;;;;;5092916;28;20231;-69
2021/04/16 06:47:26;;;;;;;10.25;4.80;;;6.60;99.90;;;;;;5092871;28;20174;-69
2021/04/16 06:49:56;;;;;;;8.30;4.45;;;6.60;99.90;;;;;;5092539;28;20690;-68
2021/04/16 06:52:38;;;;;;;6.40;4.20;;;6.60;99.90;;;;;;5092694;28;20167;-69
2021/04/16 06:55:14;;;;;;;4.38;3.72;;;6.70;99.90;;;;;;5092822;28;20270;-68
2021/04/16 06:57:45;;;;;;;8.38;4.32;;;6.90;99.90;;;;;;5092619;28;20160;-67
2021/04/16 07:00:26;;;;;;;8.77;3.78;;;7.10;99.90;;;;;;5092285;28;20163;-68
2021/04/16 07:03:07;;;;;;;15.45;4.90;;;7.10;99.90;;;;;;5092339;28;20211;-67
2021/04/16 07:05:41;;;;;;;31.52;5.82;;;7.10;99.90;;;;;;5092101;28;20171;-68
2021/04/16 07:08:16;;;;;;;5.60;4.18;;;6.80;99.90;;;;;;5092057;28;20183;-69
2021/04/16 07:10:43;;;;;;;7.75;4.05;;;7.10;99.90;;;;;;5092421;28;20209;-69
2021/04/16 07:13:19;;;;;;;7.20;3.28;;;7.10;99.90;;;;;;5092263;28;20596;-69
2021/04/16 07:15:45;;;;;;;7.68;4.45;;;7.00;99.90;;;;;;5091841;28;20171;-68
2021/04/16 07:18:14;;;;;;;4.53;3.45;;;7.40;99.90;;;;;;5092434;28;20338;-69
2021/04/16 07:20:40;;;;;;;3.50;3.00;;;7.40;99.90;;;;;;5092112;28;20201;-69
2021/04/16 07:23:05;;;;;;;6.13;3.60;;;7.10;99.90;;;;;;5092143;28;20191;-69
2021/04/16 07:25:46;;;;;;;5.03;3.87;;;7.30;99.90;;;;;;5092033;28;20183;-69
2021/04/16 07:28:33;;;;;;;5.35;3.95;;;7.60;99.90;;;;;;5092149;28;20166;-69
2021/04/16 07:31:19;;;;;;;6.90;3.58;;;7.80;99.90;;;;;;5092135;28;20195;-69
2021/04/16 07:33:44;;;;;;;8.25;3.30;;;8.00;99.90;;;;;;5091939;28;20192;-69
2021/04/16 07:36:37;;;;;;;4.37;2.97;;;7.80;99.90;;;;;;5092110;28;20170;-69
2021/04/16 07:39:13;;;;;;;4.72;3.83;;;7.70;99.90;;;;;;5092260;28;20164;-70
2021/04/16 07:41:48;;;;;;;6.68;3.00;;;7.80;99.90;;;;;;5091934;28;20743;-70
2021/04/16 07:44:26;;;;;;;4.18;3.03;;;7.80;99.90;;;;;;5091923;28;20198;-67
2021/04/16 07:46:57;;;;;;;6.28;3.55;;;8.00;99.90;;;;;;5094786;28;20179;-69
2021/04/16 07:49:31;;;;;;;4.85;2.65;;;7.90;99.90;;;;;;5095872;28;20642;-69
2021/04/16 07:52:17;;;;;;;5.15;3.28;;;7.80;99.90;;;;;;5095498;28;20225;-69
2021/04/16 07:54:42;;;;;;;4.90;3.30;;;7.90;99.90;;;;;;5095527;28;20191;-69
2021/04/16 07:57:12;;;;;;;3.03;2.60;;;8.20;99.90;;;;;;5095616;28;20583;-69
2021/04/16 07:59:58;;;;;;;12.52;4.57;;;8.20;99.90;;;;;;5095443;28;20156;-69
2021/04/16 08:02:48;;;;;;;4.22;2.47;;;8.40;99.90;;;;;;5095651;28;20203;-69
2021/04/16 08:05:14;;;;;;;4.23;2.40;;;8.40;99.90;;;;;;5081874;28;20679;-69
2021/04/16 08:07:39;;;;;;;3.83;2.20;;;8.10;99.90;;;;;;5095131;28;20434;-69
2021/04/16 08:10:17;;;;;;;4.30;2.50;;;8.40;99.90;;;;;;5095180;28;20605;-69
2021/04/16 08:12:43;;;;;;;3.57;1.90;;;8.40;99.90;;;;;;5095254;28;20209;-69
2021/04/16 08:15:26;;;;;;;3.40;2.10;;;8.30;99.90;;;;;;5095177;28;20938;-68
2021/04/16 08:17:52;;;;;;;9.07;2.63;;;8.50;99.90;;;;;;5095128;28;20175;-68
2021/04/16 08:20:43;;;;;;;3.63;2.23;;;8.50;99.90;;;;;;5095337;28;20533;-68
2021/04/16 08:23:12;;;;;;;3.77;2.63;;;8.50;99.90;;;;;;5095100;28;20209;-68
2021/04/16 08:25:43;;;;;;;2.17;1.97;;;8.60;99.90;;;;;;5095337;28;20407;-68
2021/04/16 08:28:14;;;;;;;3.40;2.60;;;8.60;99.90;;;;;;5095584;28;20895;-70
2021/04/16 08:31:05;;;;;;;4.33;2.60;;;8.70;99.90;;;;;;5095368;28;20451;-69
2021/04/16 08:33:45;;;;;;;4.53;2.43;;;8.80;99.90;;;;;;5095378;28;20417;-70
2021/04/16 08:36:13;;;;;;;7.03;2.43;;;9.10;99.90;;;;;;5095287;28;20376;-68
2021/04/16 08:39:05;;;;;;;3.97;2.43;;;9.40;99.90;;;;;;5094490;28;20395;-66
2021/04/16 08:41:33;;;;;;;4.20;2.10;;;9.40;99.90;;;;;;5058603;28;20385;-68
2021/04/16 08:44:02;;;;;;;1.80;1.40;;;8.90;99.90;;;;;;5094854;28;20514;-68
2021/04/16 08:46:38;;;;;;;3.60;1.60;;;9.20;99.90;;;;;;5094298;28;20449;-68
2021/04/16 08:49:26;;;;;;;3.83;2.20;;;9.30;99.90;;;;;;5094767;28;20747;-69
2021/04/16 08:51:58;;;;;;;3.87;2.43;;;9.60;99.90;;;;;;5094178;28;20993;-69
2021/04/16 08:54:28;;;;;;;3.00;2.03;;;9.80;99.90;;;;;;5094343;28;20435;-68
2021/04/16 08:57:25;;;;;;;3.03;1.70;;;9.50;99.90;;;;;;5094007;28;20433;-68
2021/04/16 09:00:14;;;;;;;5.30;2.47;;;9.70;99.90;;;;;;5091080;28;20409;-68
2021/04/16 09:02:52;;;;;;;2.80;1.73;;;9.60;99.90;;;;;;5093726;28;20415;-68
2021/04/16 09:05:30;;;;;;;2.57;1.80;;;9.70;99.90;;;;;;5094335;28;20411;-69
2021/04/16 09:08:08;;;;;;;4.53;1.83;;;9.80;99.90;;;;;;5094055;28;20417;-68
2021/04/16 09:10:33;;;;;;;3.00;1.97;;;9.70;99.90;;;;;;5093780;28;20452;-68
2021/04/16 09:13:01;;;;;;;3.57;2.03;;;10.00;99.90;;;;;;5093897;28;20429;-67
2021/04/16 09:15:37;;;;;;;3.17;1.80;;;10.10;99.90;;;;;;5095213;28;20204;-69
2021/04/16 09:18:05;;;;;;;4.47;2.30;;;10.20;99.90;;;;;;5094330;28;20743;-68
2021/04/16 09:20:34;;;;;;;3.70;2.30;;;10.20;99.90;;;;;;5093727;28;20401;-69
2021/04/16 09:23:03;;;;;;;2.93;2.03;;;10.40;99.90;;;;;;5093374;28;20923;-69
2021/04/16 09:25:32;;;;;;;2.70;1.80;;;10.70;99.90;;;;;;5093895;28;20423;-68
2021/04/16 09:28:22;;;;;;;7.97;2.63;;;10.20;99.90;;;;;;5092364;28;20406;-69
2021/04/16 09:31:03;;;;;;;5.17;2.40;;;10.70;99.90;;;;;;5094646;28;20450;-69
2021/04/16 09:33:38;;;;;;;2.70;2.37;;;10.80;99.90;;;;;;5093656;28;20433;-69
2021/04/16 09:36:31;;;;;;;4.53;2.47;;;10.80;99.90;;;;;;5093692;28;21006;-70
2021/04/16 09:39:15;;;;;;;6.30;2.57;;;10.90;99.90;;;;;;5092626;28;20763;-68
2021/04/16 09:41:46;;;;;;;4.30;2.07;;;11.00;99.90;;;;;;5093959;28;20854;-70
2021/04/16 09:44:26;;;;;;;2.70;2.00;;;10.80;99.90;;;;;;5093791;28;20425;-69
2021/04/16 09:47:04;;;;;;;4.90;2.17;;;11.10;99.90;;;;;;5093961;28;20413;-68
2021/04/16 09:49:40;;;;;;;6.43;2.20;;;10.80;99.90;;;;;;5093683;28;20705;-70
2021/04/16 09:52:27;;;;;;;3.10;2.77;;;10.80;99.90;;;;;;5093533;28;20484;-69
2021/04/16 09:54:53;;;;;;;3.73;2.77;;;10.90;99.90;;;;;;5093698;28;20448;-68
2021/04/16 09:57:43;;;;;;;4.27;2.70;;;11.20;99.90;;;;;;5094129;28;20894;-69
2021/04/16 10:00:52;;;;;;;4.10;3.30;;;11.20;99.90;;;;;;5093369;28;20200;-68
2021/04/16 10:03:24;;;;;;;5.77;3.30;;;11.50;99.90;;;;;;5093014;28;20504;-70
2021/04/16 10:05:50;;;;;;;7.10;3.67;;;11.30;99.90;;;;;;5093162;28;20397;-69
2021/04/16 10:08:30;;;;;;;3.40;2.97;;;11.10;99.90;;;;;;5092717;28;20478;-70
2021/04/16 10:11:07;;;;;;;5.10;3.37;;;11.50;99.90;;;;;;5093146;28;20520;-68
2021/04/16 10:13:36;;;;;;;4.03;2.93;;;11.60;99.90;;;;;;5093379;28;20429;-69
2021/04/16 10:16:15;;;;;;;8.67;3.83;;;11.80;99.90;;;;;;5093266;28;20409;-69
2021/04/16 10:18:41;;;;;;;3.67;2.80;;;11.80;99.90;;;;;;5093250;28;20390;-68
2021/04/16 10:21:20;;;;;;;4.00;3.03;;;11.60;99.90;;;;;;5093187;28;20409;-69
2021/04/16 10:23:50;;;;;;;4.50;3.23;;;11.50;99.90;;;;;;5092794;28;20191;-68
2021/04/16 10:42:34;;;;;;;6.10;3.50;;;12.90;99.90;;;;;;5092838;28;20381;-69
2021/04/16 11:04:06;;;;;;;6.50;2.73;;;11.70;99.90;;;;;;5092202;28;20427;-69
2021/04/16 11:06:26;;;;;;;4.80;2.90;;;12.00;99.90;;;;;;5092049;28;20425;-68
2021/04/16 11:07:40;;;;;;;5.40;2.87;;;12.50;99.90;;;;;;5091905;28;20447;-68
2021/04/16 11:20:35;;;;;;;4.90;2.70;;;12.70;99.90;;;;;;5092178;28;20432;-68
2021/04/16 11:32:09;;;;;;;3.60;2.37;;;13.90;99.90;;;;;;5096331;28;20752;-68
2021/04/16 11:50:57;;;;;;;3.00;2.20;;;14.70;99.90;;;;;;5054416;28;20772;-68
2021/04/16 12:38:19;;;;;;;2.70;1.67;;;15.50;99.90;;;;;;5094943;28;20397;-69
2021/04/16 12:40:45;;;;;;;2.40;1.30;;;15.30;99.90;;;;;;5094371;28;20887;-69
2021/04/16 12:43:11;;;;;;;2.10;1.30;;;15.20;99.90;;;;;;5094464;28;20510;-69
2021/04/16 12:45:36;;;;;;;4.80;1.90;;;14.40;99.90;;;;;;5094780;28;20202;-72
2021/04/16 12:48:02;;;;;;;2.70;1.47;;;14.20;99.90;;;;;;5094829;28;20166;-69
2021/04/16 12:50:31;;;;;;;6.60;2.30;;;14.70;99.90;;;;;;5094431;28;20737;-70
2021/04/16 12:52:57;;;;;;;2.70;1.30;;;14.70;99.90;;;;;;5094671;28;20431;-70
2021/04/16 12:55:24;;;;;;;3.70;1.57;;;14.30;99.90;;;;;;5094424;28;20393;-69
2021/04/16 12:57:55;;;;;;;3.97;1.13;;;14.30;99.90;;;;;;5094616;28;20399;-69
2021/04/16 13:00:31;;;;;;;1.50;1.20;;;14.60;99.90;;;;;;5094427;28;20570;-70
2021/04/16 13:03:16;;;;;;;3.80;1.93;;;14.50;99.90;;;;;;5094616;28;20780;-69
2021/04/16 13:05:43;;;;;;;7.23;1.60;;;15.60;99.90;;;;;;5094272;28;20446;-69
2021/04/16 13:08:09;;;;;;;1.53;1.13;;;15.00;99.90;;;;;;5093725;28;20467;-68
2021/04/16 13:10:35;;;;;;;2.50;1.77;;;14.60;99.90;;;;;;5094313;28;20489;-69
2021/04/16 13:13:01;;;;;;;8.73;2.07;;;14.60;99.90;;;;;;5093670;28;20187;-68
2021/04/16 13:15:26;;;;;;;3.57;1.90;;;15.10;99.90;;;;;;5094175;28;20473;-68
2021/04/16 13:17:59;;;;;;;2.30;1.53;;;14.90;99.90;;;;;;5094178;28;20167;-68
2021/04/16 13:20:26;;;;;;;2.30;1.60;;;14.60;99.90;;;;;;5094855;28;20411;-68
2021/04/16 13:22:53;;;;;;;2.80;2.07;;;14.40;99.90;;;;;;5094637;28;20782;-69
2021/04/16 13:25:26;;;;;;;4.33;1.43;;;13.70;99.90;;;;;;5092535;28;20414;-69
2021/04/16 13:27:52;;;;;;;3.70;1.53;;;13.70;99.90;;;;;;5093777;28;20458;-68
2021/04/16 13:30:20;;;;;;;4.60;1.50;;;14.30;99.90;;;;;;5093888;28;20485;-69
2021/04/16 13:32:49;;;;;;;2.07;1.30;;;14.60;99.90;;;;;;5093539;28;20215;-70
2021/04/16 13:35:20;;;;;;;2.00;1.37;;;15.00;99.90;;;;;;5093655;28;20404;-69
2021/04/16 13:37:46;;;;;;;1.73;1.40;;;15.70;99.90;;;;;;5093753;28;20423;-69
2021/04/16 13:40:12;;;;;;;3.80;1.50;;;15.70;99.90;;;;;;5093427;28;20490;-69
2021/04/16 13:42:38;;;;;;;6.90;2.73;;;15.80;99.90;;;;;;5093542;28;20707;-70
2021/04/16 13:45:05;;;;;;;4.30;1.57;;;16.60;99.90;;;;;;5093326;28;20523;-68
2021/04/16 13:47:35;;;;;;;1.93;1.73;;;16.30;99.90;;;;;;5093232;28;20669;-69
2021/04/16 13:50:01;;;;;;;2.73;1.80;;;16.00;99.90;;;;;;5093030;28;20789;-68
2021/04/16 13:52:27;;;;;;;7.27;2.57;;;15.90;99.90;;;;;;5093599;28;20752;-69
2021/04/16 13:54:52;;;;;;;3.43;1.80;;;15.20;99.90;;;;;;5093251;28;20425;-68
2021/04/16 13:57:19;;;;;;;5.57;2.20;;;15.10;99.90;;;;;;5092330;28;20702;-70
2021/04/16 13:59:45;;;;;;;2.37;1.70;;;15.30;99.90;;;;;;5091307;28;20588;-70
2021/04/16 14:02:18;;;;;;;2.33;1.53;;;15.20;99.90;;;;;;5090521;28;20413;-69
2021/04/16 14:04:45;;;;;;;6.53;1.90;;;15.30;99.90;;;;;;5090909;28;20840;-68
2021/04/16 14:07:11;;;;;;;3.20;1.70;;;15.60;99.90;;;;;;5091038;28;20728;-69
2021/04/16 14:09:38;;;;;;;4.10;1.87;;;14.60;99.90;;;;;;5090978;28;20416;-69
2021/04/16 14:12:06;;;;;;;4.80;2.00;;;14.70;99.90;;;;;;5091325;28;20952;-68
2021/04/16 14:14:32;;;;;;;6.03;2.00;;;14.60;99.90;;;;;;5092798;28;20490;-69
2021/04/16 14:17:14;;;;;;;2.37;1.80;;;14.80;99.90;;;;;;5093379;28;20401;-69
2021/04/16 14:20:04;;;;;;;6.70;1.90;;;14.30;99.90;;;;;;5092884;28;20200;-69
2021/04/16 14:22:40;;;;;;;4.00;2.67;;;14.70;99.90;;;;;;5093590;28;20472;-69
2021/04/16 14:25:22;;;;;;;2.90;2.13;;;14.90;99.90;;;;;;5093076;28;20408;-69
2021/04/16 14:27:47;;;;;;;3.80;2.10;;;14.90;99.90;;;;;;5093031;28;20764;-69
2021/04/16 14:30:18;;;;;;;3.50;2.50;;;14.40;99.90;;;;;;5092683;28;20404;-68
2021/04/16 14:32:43;;;;;;;3.40;1.97;;;14.10;99.90;;;;;;5092623;28;20177;-68
2021/04/16 14:35:10;;;;;;;3.67;2.30;;;13.80;99.90;;;;;;5092632;28;20764;-69
2021/04/16 14:37:35;;;;;;;4.10;2.50;;;13.50;99.90;;;;;;5092566;28;20590;-68
2021/04/16 14:40:01;;;;;;;3.37;2.33;;;14.20;99.90;;;;;;5092568;28;20417;-69
2021/04/16 14:42:27;;;;;;;3.30;2.10;;;14.30;99.90;;;;;;5092781;28;20171;-68
2021/04/16 14:44:52;;;;;;;3.53;2.30;;;14.80;99.90;;;;;;5092826;28;20173;-68
2021/04/16 14:47:18;;;;;;;3.13;2.20;;;14.80;99.90;;;;;;5092908;28;20172;-69
2021/04/16 14:49:43;;;;;;;7.43;3.30;;;14.80;99.90;;;;;;5093935;28;20170;-69
2021/04/16 14:52:14;;;;;;;4.13;2.53;;;14.90;99.90;;;;;;5092384;28;20281;-68
2021/04/16 14:54:45;;;;;;;3.47;2.27;;;14.50;99.90;;;;;;5092480;28;20192;-69
2021/04/16 14:57:29;;;;;;;4.10;2.27;;;15.00;99.90;;;;;;5096662;28;20385;-69
2021/04/16 14:59:57;;;;;;;2.97;2.00;;;14.90;99.90;;;;;;5096923;28;20481;-69
2021/04/16 15:02:23;;;;;;;2.83;2.53;;;15.30;99.90;;;;;;5096988;28;20414;-69